createdAt,value
2022-10-14T00:09:30.914Z,14
2022-10-14T00:38:17.392Z,16
2022-10-14T01:35:23.326Z,16
2022-10-14T02:03:54.093Z,16
2022-10-14T02:32:49.390Z,16
2022-10-14T03:01:26.322Z,14
2022-10-14T03:30:38.378Z,18
2022-10-14T03:59:26.930Z,16
2022-10-14T05:26:13.717Z,14
2022-10-14T05:54:54.196Z,13
2022-10-14T06:23:39.975Z,17
2022-10-14T06:52:18.081Z,16
2022-10-14T07:20:47.373Z,20
2022-10-14T07:49:34.097Z,17
2022-10-14T08:18:16.488Z,8
2022-10-14T08:46:52.674Z,8
2022-10-14T09:15:33.970Z,7
2022-10-14T10:13:03.460Z,7
2022-10-14T10:41:37.526Z,7
2022-10-14T11:10:10.199Z,6
2022-10-14T11:38:42.611Z,6
2022-10-14T12:07:36.039Z,6
2022-10-14T12:36:04.258Z,6
2022-10-14T13:04:37.252Z,5
2022-10-14T13:33:04.731Z,8
2022-10-14T14:01:51.030Z,6
2022-10-14T14:30:29.828Z,8
2022-10-14T14:58:55.063Z,1
2022-10-14T15:27:27.657Z,1
2022-10-14T15:56:51.058Z,1
2022-10-14T16:54:04.646Z,3
2022-10-14T17:22:39.660Z,1
2022-10-14T17:51:20.014Z,3
2022-10-14T19:17:40.496Z,1
2022-10-14T19:46:19.948Z,2
2022-10-14T20:14:59.101Z,1
2022-10-14T20:43:32.184Z,1
2022-10-14T21:11:59.431Z,1
2022-10-14T21:40:52.974Z,1
2022-10-14T22:10:00.433Z,1
2022-10-14T22:38:21.423Z,1
2022-10-14T23:06:33.175Z,1
2022-10-14T23:35:11.202Z,1
